createdAt,value
2024-02-24T00:00:33.444Z,3.86
2024-02-24T00:03:24.040Z,3.89
2024-02-24T00:05:55.210Z,3.92
2024-02-24T00:08:26.505Z,3.94
2024-02-24T00:10:58.178Z,3.95
2024-02-24T00:13:29.153Z,3.93
2024-02-24T00:16:00.466Z,3.90
2024-02-24T00:18:31.748Z,3.86
2024-02-24T00:21:02.942Z,3.84
2024-02-24T00:23:34.335Z,3.81
2024-02-24T00:26:06.070Z,3.76
2024-02-24T00:28:37.133Z,3.71
2024-02-24T00:31:08.290Z,3.65
2024-02-24T00:33:40.420Z,3.58
2024-02-24T00:36:12.502Z,3.51
2024-02-24T00:38:42.091Z,3.46
2024-02-24T00:41:13.193Z,3.41
2024-02-24T00:43:44.275Z,3.38
2024-02-24T00:46:15.255Z,3.35
2024-02-24T00:48:46.730Z,3.29
2024-02-24T00:51:17.717Z,3.25
2024-02-24T00:53:49.801Z,3.21
2024-02-24T00:56:22.650Z,3.17
2024-02-24T00:58:53.744Z,3.13
2024-02-24T01:01:25.179Z,3.10
2024-02-24T01:03:56.446Z,3.07
2024-02-24T01:06:27.558Z,3.01
2024-02-24T01:08:58.610Z,2.98
2024-02-24T01:11:29.776Z,2.95
2024-02-24T01:14:02.105Z,2.92
2024-02-24T01:16:33.402Z,2.92
2024-02-24T01:19:03.059Z,2.90
2024-02-24T01:21:34.382Z,2.88
2024-02-24T01:24:05.497Z,2.84
2024-02-24T01:26:36.721Z,2.80
2024-02-24T01:29:07.953Z,2.77
2024-02-24T01:31:37.624Z,2.74
2024-02-24T01:36:40.714Z,2.68
2024-02-24T01:39:11.752Z,2.69
2024-02-24T01:41:43.128Z,2.71
2024-02-24T01:44:19.331Z,2.72
2024-02-24T01:46:51.501Z,2.74
2024-02-24T01:49:22.872Z,2.75
2024-02-24T01:51:54.032Z,2.76
2024-02-24T01:54:26.189Z,2.77
2024-02-24T01:56:57.636Z,2.79
2024-02-24T01:59:29.312Z,2.80
2024-02-24T02:02:00.679Z,2.81
2024-02-24T02:04:31.754Z,2.85
2024-02-24T02:07:03.106Z,2.87
2024-02-24T02:09:34.271Z,2.88
2024-02-24T02:12:04.610Z,2.88
2024-02-24T02:14:35.956Z,2.87
2024-02-24T02:17:05.791Z,2.87
2024-02-24T02:19:36.941Z,2.84
2024-02-24T02:22:12.339Z,2.83
2024-02-24T02:24:43.673Z,2.84
2024-02-24T02:27:14.792Z,2.84
2024-02-24T02:29:44.415Z,2.84
2024-02-24T02:32:15.980Z,2.82
2024-02-24T02:34:47.140Z,2.82
2024-02-24T02:37:18.448Z,2.81
2024-02-24T02:39:48.256Z,2.78
2024-02-24T02:42:19.400Z,2.75
2024-02-24T02:44:50.647Z,2.72
2024-02-24T02:47:23.977Z,2.70
2024-02-24T02:49:56.010Z,2.67
2024-02-24T02:52:27.370Z,2.68
2024-02-24T02:54:58.940Z,2.68
2024-02-24T02:57:30.155Z,2.70
2024-02-24T02:59:59.764Z,2.73
2024-02-24T03:02:32.928Z,2.73
2024-02-24T03:05:04.245Z,2.77
2024-02-24T03:07:35.756Z,2.80
2024-02-24T03:10:08.353Z,2.82
2024-02-24T03:12:40.099Z,2.83
2024-02-24T03:15:11.996Z,2.83
2024-02-24T03:17:43.131Z,2.82
2024-02-24T03:20:15.156Z,2.82
2024-02-24T03:22:52.260Z,2.81
2024-02-24T03:25:21.878Z,2.81
2024-02-24T03:27:53.048Z,2.78
2024-02-24T03:30:23.960Z,2.80
2024-02-24T03:32:55.160Z,2.82
2024-02-24T03:35:24.853Z,2.85
2024-02-24T03:37:57.697Z,2.88
2024-02-24T03:40:28.879Z,2.92
2024-02-24T03:43:00.587Z,2.96
2024-02-24T03:45:33.347Z,3.00
2024-02-24T03:48:04.883Z,3.03
2024-02-24T03:50:36.145Z,3.05
2024-02-24T03:53:07.392Z,3.07
2024-02-24T03:55:36.917Z,3.09
2024-02-24T03:58:07.998Z,3.09
2024-02-24T04:00:37.597Z,3.10
2024-02-24T04:03:09.148Z,3.08
2024-02-24T04:05:40.503Z,3.09
2024-02-24T04:08:10.063Z,3.09
2024-02-24T04:10:41.185Z,3.07
2024-02-24T04:13:12.430Z,3.05
2024-02-24T04:15:49.504Z,3.05
2024-02-24T04:18:20.943Z,3.05
2024-02-24T04:20:52.260Z,3.05
2024-02-24T04:23:23.341Z,3.06
2024-02-24T04:25:54.473Z,3.06
2024-02-24T04:28:25.612Z,3.05
2024-02-24T04:30:56.588Z,3.07
2024-02-24T04:33:27.599Z,3.06
2024-02-24T04:35:58.984Z,3.07
2024-02-24T04:38:30.112Z,3.06
2024-02-24T04:41:01.173Z,3.05
2024-02-24T04:43:34.849Z,3.05
2024-02-24T04:46:08.049Z,3.04
2024-02-24T04:48:39.508Z,3.03
2024-02-24T04:51:11.231Z,3.02
2024-02-24T04:53:42.184Z,2.99
2024-02-24T04:56:16.371Z,2.97
2024-02-24T04:58:47.668Z,2.93
2024-02-24T05:01:20.634Z,2.92
2024-02-24T05:03:51.639Z,2.91
2024-02-24T05:06:23.861Z,2.90
2024-02-24T05:08:55.156Z,2.89
2024-02-24T05:11:25.887Z,2.90
2024-02-24T05:13:56.951Z,2.87
2024-02-24T05:16:28.300Z,2.86
2024-02-24T05:18:59.408Z,2.85
2024-02-24T05:21:30.762Z,2.86
2024-02-24T05:24:01.878Z,2.87
2024-02-24T05:26:32.149Z,2.89
2024-02-24T05:29:01.632Z,2.89
2024-02-24T05:31:32.716Z,2.88
2024-02-24T05:34:04.070Z,2.89
2024-02-24T05:36:36.571Z,2.90
2024-02-24T05:39:07.957Z,2.91
2024-02-24T05:41:39.287Z,2.92
2024-02-24T05:44:09.051Z,2.94
2024-02-24T05:46:40.160Z,2.94
2024-02-24T05:49:11.250Z,2.95
2024-02-24T05:51:44.098Z,2.96
2024-02-24T05:54:15.203Z,2.98
2024-02-24T05:56:46.633Z,3.00
2024-02-24T05:59:17.781Z,3.02
2024-02-24T06:01:49.091Z,3.04
2024-02-24T06:04:22.257Z,3.04
2024-02-24T06:06:53.349Z,3.05
2024-02-24T06:09:22.927Z,3.07
2024-02-24T06:11:54.080Z,3.04
2024-02-24T06:14:25.521Z,3.00
2024-02-24T06:16:55.128Z,2.96
2024-02-24T06:19:26.260Z,2.90
2024-02-24T06:21:57.979Z,2.86
2024-02-24T06:24:27.700Z,2.85
2024-02-24T06:26:58.889Z,2.84
2024-02-24T06:29:30.034Z,2.85
2024-02-24T06:32:00.956Z,2.85
2024-02-24T06:34:50.762Z,2.86
2024-02-24T06:37:22.022Z,2.85
2024-02-24T06:39:53.254Z,2.84
2024-02-24T06:42:23.141Z,2.83
2024-02-24T06:44:54.366Z,2.82
2024-02-24T06:47:29.354Z,2.83
2024-02-24T06:50:00.834Z,2.85
2024-02-24T06:52:34.122Z,2.88
2024-02-24T06:55:05.513Z,2.92
2024-02-24T06:57:36.703Z,2.98
2024-02-24T07:00:10.141Z,3.03
2024-02-24T07:02:41.801Z,3.08
2024-02-24T07:05:13.131Z,3.13
2024-02-24T07:07:43.160Z,3.18
2024-02-24T07:10:14.517Z,3.19
2024-02-24T07:12:45.840Z,3.21
2024-02-24T07:15:17.175Z,3.24
2024-02-24T07:17:48.266Z,3.30
2024-02-24T07:20:18.002Z,3.36
2024-02-24T07:22:50.948Z,3.39
2024-02-24T07:25:22.061Z,3.42
2024-02-24T07:27:53.233Z,3.46
2024-02-24T07:30:22.817Z,3.50
2024-02-24T07:32:53.857Z,3.54
2024-02-24T07:35:23.432Z,3.58
2024-02-24T07:37:54.282Z,3.60
2024-02-24T07:40:25.340Z,3.64
2024-02-24T07:42:56.535Z,3.69
2024-02-24T07:45:27.745Z,3.72
2024-02-24T07:47:57.969Z,3.74
2024-02-24T07:50:29.502Z,3.75
2024-02-24T07:52:59.178Z,3.76
2024-02-24T07:55:30.135Z,3.74
2024-02-24T07:57:59.831Z,3.77
2024-02-24T08:00:31.046Z,3.79
2024-02-24T08:03:00.639Z,3.86
2024-02-24T08:05:31.797Z,3.91
2024-02-24T08:08:03.856Z,3.98
2024-02-24T08:10:34.885Z,4.02
2024-02-24T08:13:06.136Z,4.06
2024-02-24T08:15:37.164Z,4.14
2024-02-24T08:18:09.069Z,4.21
2024-02-24T08:20:40.132Z,4.26
2024-02-24T08:23:11.629Z,4.34
2024-02-24T08:25:42.943Z,4.40
2024-02-24T08:28:14.881Z,4.42
2024-02-24T08:30:46.016Z,4.43
2024-02-24T08:33:17.402Z,4.42
2024-02-24T08:35:48.795Z,4.45
2024-02-24T08:38:19.963Z,4.51
2024-02-24T08:41:07.381Z,4.58
2024-02-24T08:43:44.102Z,4.67
2024-02-24T08:46:13.684Z,4.74
2024-02-24T08:48:44.966Z,4.79
2024-02-24T08:51:14.489Z,4.90
2024-02-24T08:53:45.488Z,4.98
2024-02-24T08:58:51.892Z,5.13
2024-02-24T09:01:23.210Z,5.17
2024-02-24T09:03:54.653Z,5.25
2024-02-24T09:06:25.948Z,5.39
2024-02-24T09:08:57.129Z,5.53
2024-02-24T09:11:28.820Z,5.63
2024-02-24T09:14:00.062Z,5.79
2024-02-24T09:16:31.223Z,5.96
2024-02-24T09:19:02.450Z,6.09
2024-02-24T09:21:33.536Z,6.23
2024-02-24T09:24:03.079Z,6.33
2024-02-24T09:26:34.341Z,6.40
2024-02-24T09:29:05.223Z,6.47
2024-02-24T09:31:34.762Z,6.56
2024-02-24T09:34:06.837Z,6.62
2024-02-24T09:36:41.746Z,6.60
2024-02-24T09:39:13.625Z,6.54
2024-02-24T09:41:44.625Z,6.53
2024-02-24T09:44:16.454Z,6.50
2024-02-24T09:46:47.815Z,6.49
2024-02-24T09:49:19.048Z,6.48
2024-02-24T09:51:50.689Z,6.47
2024-02-24T09:54:21.873Z,6.47
2024-02-24T09:56:55.898Z,6.48
2024-02-24T09:59:28.157Z,6.48
2024-02-24T10:01:59.403Z,6.43
2024-02-24T10:04:30.862Z,6.43
2024-02-24T10:07:01.865Z,6.43
2024-02-24T10:09:34.779Z,6.42
2024-02-24T10:12:08.248Z,6.42
2024-02-24T10:14:39.239Z,6.43
2024-02-24T10:17:11.867Z,6.46
2024-02-24T10:20:00.245Z,6.52
2024-02-24T10:22:31.646Z,6.55
2024-02-24T10:25:01.247Z,6.59
2024-02-24T10:27:34.281Z,6.60
2024-02-24T10:30:08.496Z,6.62
2024-02-24T10:32:40.491Z,6.65
2024-02-24T10:35:13.104Z,6.65
2024-02-24T10:38:02.119Z,6.63
2024-02-24T10:40:38.009Z,6.59
2024-02-24T10:43:10.205Z,6.55
2024-02-24T10:45:41.700Z,6.57
2024-02-24T10:48:13.022Z,6.61
2024-02-24T10:50:46.972Z,6.63
2024-02-24T10:53:23.422Z,6.65
2024-02-24T10:55:56.498Z,6.66
2024-02-24T10:58:27.756Z,6.69
2024-02-24T11:00:58.930Z,6.70
2024-02-24T11:03:31.976Z,6.69
2024-02-24T11:06:04.148Z,6.70
2024-02-24T11:08:39.970Z,6.75
2024-02-24T11:11:13.950Z,6.79
2024-02-24T11:14:00.061Z,6.84
2024-02-24T11:16:40.482Z,6.88
2024-02-24T11:19:13.895Z,6.94
2024-02-24T11:22:05.146Z,6.99
2024-02-24T11:24:37.638Z,7.01
2024-02-24T11:27:09.127Z,7.02
2024-02-24T11:29:40.354Z,7.05
2024-02-24T11:32:18.023Z,7.10
2024-02-24T11:34:49.961Z,7.13
2024-02-24T11:37:22.196Z,7.19
2024-02-24T11:39:54.298Z,7.24
2024-02-24T11:42:25.816Z,7.28
2024-02-24T11:44:57.816Z,7.31
2024-02-24T11:47:31.345Z,7.37
2024-02-24T11:50:02.473Z,7.45
2024-02-24T11:52:35.950Z,7.46
2024-02-24T11:55:08.419Z,7.45
2024-02-24T11:57:39.657Z,7.43
2024-02-24T12:00:13.212Z,7.45
2024-02-24T12:02:44.289Z,7.49
2024-02-24T12:05:19.689Z,7.56
2024-02-24T12:07:51.022Z,7.64
2024-02-24T12:10:22.150Z,7.74
2024-02-24T12:12:53.631Z,7.83
2024-02-24T12:15:25.079Z,7.87
2024-02-24T12:17:56.621Z,7.91
2024-02-24T12:20:29.150Z,7.94
2024-02-24T12:23:06.157Z,8.00
2024-02-24T12:25:38.299Z,8.05
2024-02-24T12:28:09.608Z,8.07
2024-02-24T12:30:41.550Z,8.09
2024-02-24T12:33:17.881Z,8.12
2024-02-24T12:35:50.841Z,8.16
2024-02-24T12:38:22.101Z,8.18
2024-02-24T12:40:53.295Z,8.17
2024-02-24T12:43:24.520Z,8.18
2024-02-24T12:45:54.160Z,8.18
2024-02-24T12:48:26.421Z,8.17
2024-02-24T12:50:58.196Z,8.18
2024-02-24T12:53:29.779Z,8.22
2024-02-24T12:56:01.371Z,8.25
2024-02-24T12:58:35.283Z,8.29
2024-02-24T13:01:08.160Z,8.36
2024-02-24T13:03:39.730Z,8.42
2024-02-24T13:06:11.231Z,8.48
2024-02-24T13:08:42.397Z,8.51
2024-02-24T13:11:13.864Z,8.53
2024-02-24T13:13:45.224Z,8.53
2024-02-24T13:16:16.242Z,8.50
2024-02-24T13:18:47.340Z,8.49
2024-02-24T13:21:18.726Z,8.48
2024-02-24T13:23:49.850Z,8.45
2024-02-24T13:26:21.006Z,8.41
2024-02-24T13:28:52.480Z,8.39
2024-02-24T13:31:23.534Z,8.40
2024-02-24T13:34:38.537Z,8.43
2024-02-24T13:37:29.086Z,8.48
2024-02-24T13:40:00.332Z,8.53
2024-02-24T13:42:33.513Z,8.57
2024-02-24T13:45:06.887Z,8.62
2024-02-24T13:47:38.536Z,8.66
2024-02-24T13:50:11.203Z,8.69
2024-02-24T13:52:42.440Z,8.69
2024-02-24T13:55:13.679Z,8.70
2024-02-24T13:57:44.780Z,8.74
2024-02-24T14:00:17.300Z,8.78
2024-02-24T14:02:48.362Z,8.82
2024-02-24T14:05:19.912Z,8.87
2024-02-24T14:07:51.216Z,8.94
2024-02-24T14:10:22.188Z,8.97
2024-02-24T14:12:53.079Z,8.99
2024-02-24T14:15:23.229Z,8.98
2024-02-24T14:17:55.815Z,8.97
2024-02-24T14:20:32.892Z,8.98
2024-02-24T14:23:04.580Z,8.96
2024-02-24T14:25:37.511Z,8.93
2024-02-24T14:28:14.539Z,8.93
2024-02-24T14:30:46.341Z,8.94
2024-02-24T14:33:17.848Z,8.96
2024-02-24T14:35:48.984Z,8.96
2024-02-24T14:38:20.002Z,8.97
2024-02-24T14:40:53.175Z,9.01
2024-02-24T14:43:24.402Z,9.02
2024-02-24T14:45:55.435Z,9.05
2024-02-24T14:48:26.919Z,9.05
2024-02-24T14:50:58.058Z,9.04
2024-02-24T14:53:29.243Z,9.03
2024-02-24T14:56:00.232Z,9.06
2024-02-24T14:58:31.434Z,9.06
2024-02-24T15:01:02.385Z,9.04
2024-02-24T15:03:38.120Z,9.04
2024-02-24T15:06:09.810Z,9.05
2024-02-24T15:08:41.066Z,9.08
2024-02-24T15:11:12.650Z,9.14
2024-02-24T15:13:43.575Z,9.23
2024-02-24T15:16:14.748Z,9.63
2024-02-24T15:18:45.066Z,10.12
2024-02-24T15:21:16.507Z,10.40
2024-02-24T15:23:47.684Z,10.76
2024-02-24T15:26:18.797Z,11.18
2024-02-24T15:28:50.083Z,11.53
2024-02-24T15:31:23.374Z,11.85
2024-02-24T15:33:55.395Z,12.01
2024-02-24T15:36:28.004Z,12.00
2024-02-24T15:38:59.640Z,11.92
2024-02-24T15:41:30.870Z,11.87
2024-02-24T15:44:02.529Z,11.90
2024-02-24T15:46:33.611Z,11.79
2024-02-24T15:49:04.943Z,11.53
2024-02-24T15:51:36.139Z,11.35
2024-02-24T15:54:07.289Z,11.18
2024-02-24T15:56:38.452Z,11.05
2024-02-24T15:59:09.511Z,10.93
2024-02-24T16:01:41.850Z,10.84
2024-02-24T16:04:12.906Z,10.77
2024-02-24T16:06:47.018Z,10.57
2024-02-24T16:09:18.530Z,10.21
2024-02-24T16:11:49.780Z,9.85
2024-02-24T16:14:21.114Z,9.48
2024-02-24T16:16:52.136Z,9.05
2024-02-24T16:19:23.427Z,8.67
2024-02-24T16:21:54.643Z,8.30
2024-02-24T16:24:28.698Z,8.02
2024-02-24T16:27:01.535Z,7.73
2024-02-24T16:29:33.676Z,7.45
2024-02-24T16:32:07.494Z,7.22
2024-02-24T16:34:40.395Z,6.98
2024-02-24T16:37:12.964Z,6.68
2024-02-24T16:39:44.095Z,6.39
2024-02-24T16:42:14.981Z,6.09
2024-02-24T16:44:48.417Z,5.86
2024-02-24T16:47:21.264Z,5.65
2024-02-24T16:49:52.533Z,5.49
2024-02-24T16:52:24.165Z,5.36
2024-02-24T16:54:55.163Z,5.24
2024-02-24T16:57:24.699Z,5.13
2024-02-24T16:59:55.550Z,5.00
2024-02-24T17:02:25.071Z,4.89
2024-02-24T17:04:57.218Z,4.76
2024-02-24T17:07:28.333Z,4.64
2024-02-24T17:09:59.389Z,4.54
2024-02-24T17:12:32.214Z,4.44
2024-02-24T17:15:03.620Z,4.34
2024-02-24T17:17:35.682Z,4.24
2024-02-24T17:20:09.295Z,4.16
2024-02-24T17:22:40.922Z,4.09
2024-02-24T17:25:12.856Z,4.01
2024-02-24T17:27:46.681Z,3.94
2024-02-24T17:30:38.074Z,3.87
2024-02-24T17:33:10.861Z,3.81
2024-02-24T17:35:42.608Z,3.75
2024-02-24T17:38:13.926Z,3.69
2024-02-24T17:40:44.968Z,3.63
2024-02-24T17:43:16.037Z,3.59
2024-02-24T17:45:45.814Z,3.53
2024-02-24T17:48:18.071Z,3.47
2024-02-24T17:50:49.381Z,3.42
2024-02-24T17:53:19.752Z,3.38
2024-02-24T17:55:51.716Z,3.32
2024-02-24T17:58:32.055Z,3.26
2024-02-24T18:01:08.287Z,3.21
2024-02-24T18:03:39.430Z,3.16
2024-02-24T18:06:11.947Z,3.11
2024-02-24T18:08:43.168Z,3.05
2024-02-24T18:11:13.350Z,3.01
2024-02-24T18:13:44.360Z,2.96
2024-02-24T18:16:15.296Z,2.93
2024-02-24T18:18:46.613Z,2.89
2024-02-24T18:21:22.038Z,2.85
2024-02-24T18:23:53.751Z,2.80
2024-02-24T18:26:24.724Z,2.77
2024-02-24T18:29:01.987Z,2.74
2024-02-24T18:31:50.276Z,2.70
2024-02-24T18:34:21.893Z,2.68
2024-02-24T18:36:53.002Z,2.66
2024-02-24T18:39:24.061Z,2.61
2024-02-24T18:41:55.157Z,2.57
2024-02-24T18:44:24.658Z,2.53
2024-02-24T18:46:55.561Z,2.47
2024-02-24T18:49:29.936Z,2.43
2024-02-24T18:52:01.043Z,2.39
2024-02-24T18:54:33.049Z,2.36
2024-02-24T18:57:04.642Z,2.32
2024-02-24T18:59:35.697Z,2.28
2024-02-24T19:02:08.132Z,2.25
2024-02-24T19:04:39.536Z,2.19
2024-02-24T19:07:14.457Z,2.14
2024-02-24T19:09:46.377Z,2.10
2024-02-24T19:12:18.331Z,2.06
2024-02-24T19:14:54.741Z,2.02
2024-02-24T19:17:29.788Z,1.96
2024-02-24T19:20:00.989Z,1.88
2024-02-24T19:22:33.965Z,1.83
2024-02-24T19:25:05.370Z,1.80
2024-02-24T19:27:34.682Z,1.77
2024-02-24T19:30:07.711Z,1.72
2024-02-24T19:32:38.859Z,1.67
2024-02-24T19:35:11.042Z,1.62
2024-02-24T19:37:42.306Z,1.58
2024-02-24T19:40:13.800Z,1.55
2024-02-24T19:42:46.387Z,1.48
2024-02-24T19:45:17.771Z,1.45
2024-02-24T19:48:04.881Z,1.43
2024-02-24T19:50:36.890Z,1.39
2024-02-24T19:53:07.978Z,1.37
2024-02-24T19:55:39.017Z,1.37
2024-02-24T19:58:20.637Z,1.35
2024-02-24T20:00:55.722Z,1.32
2024-02-24T20:03:26.689Z,1.29
2024-02-24T20:05:56.555Z,1.27
2024-02-24T20:08:27.718Z,1.24
2024-02-24T20:10:58.891Z,1.23
2024-02-24T20:13:30.005Z,1.21
2024-02-24T20:15:59.633Z,1.19
2024-02-24T20:18:31.771Z,1.13
2024-02-24T20:21:04.120Z,1.09
2024-02-24T20:23:36.095Z,1.06
2024-02-24T20:26:07.486Z,1.03
2024-02-24T20:28:42.720Z,1.01
2024-02-24T20:31:15.997Z,0.99
2024-02-24T20:33:53.496Z,0.98
2024-02-24T20:36:31.281Z,0.98
2024-02-24T20:39:02.636Z,0.98
2024-02-24T20:41:33.987Z,0.97
2024-02-24T20:44:05.301Z,0.94
2024-02-24T20:46:36.514Z,0.91
2024-02-24T20:49:07.644Z,0.90
2024-02-24T20:51:38.762Z,0.90
2024-02-24T20:54:10.003Z,0.89
2024-02-24T20:56:39.748Z,0.87
2024-02-24T20:59:10.769Z,0.86
2024-02-24T21:01:41.763Z,0.85
2024-02-24T21:04:12.950Z,0.83
2024-02-24T21:06:46.715Z,0.81
2024-02-24T21:09:18.033Z,0.79
2024-02-24T21:11:48.998Z,0.77
2024-02-24T21:14:22.542Z,0.76
2024-02-24T21:16:53.751Z,0.74
2024-02-24T21:19:25.196Z,0.73
2024-02-24T21:21:57.083Z,0.71
2024-02-24T21:24:28.145Z,0.68
2024-02-24T21:26:57.758Z,0.66
2024-02-24T21:29:29.158Z,0.62
2024-02-24T21:32:00.286Z,0.60
2024-02-24T21:34:32.835Z,0.58
2024-02-24T21:37:03.955Z,0.56
2024-02-24T21:39:35.792Z,0.53
2024-02-24T21:42:08.494Z,0.51
2024-02-24T21:44:39.677Z,0.48
2024-02-24T21:47:09.645Z,0.44
2024-02-24T21:49:40.865Z,0.39
2024-02-24T21:52:12.034Z,0.37
2024-02-24T21:54:42.830Z,0.35
2024-02-24T21:57:13.839Z,0.32
2024-02-24T21:59:44.866Z,0.30
2024-02-24T22:02:15.954Z,0.27
2024-02-24T22:04:47.146Z,0.24
2024-02-24T22:07:19.513Z,0.18
2024-02-24T22:09:50.961Z,0.15
2024-02-24T22:12:22.169Z,0.14
2024-02-24T22:14:53.444Z,0.13
2024-02-24T22:17:25.338Z,0.13
2024-02-24T22:19:56.415Z,0.12
2024-02-24T22:22:27.597Z,0.12
2024-02-24T22:24:58.575Z,0.10
2024-02-24T22:27:30.329Z,0.09
2024-02-24T22:30:08.812Z,0.04
2024-02-24T22:32:47.249Z,-0.04
2024-02-24T22:35:18.406Z,-0.10
2024-02-24T22:37:49.341Z,-0.12
2024-02-24T22:40:20.317Z,-0.13
2024-02-24T22:42:51.432Z,-0.14
2024-02-24T22:45:22.608Z,-0.13
2024-02-24T22:47:53.788Z,-0.14
2024-02-24T22:50:24.890Z,-0.18
2024-02-24T22:52:56.115Z,-0.21
2024-02-24T22:55:28.559Z,-0.19
2024-02-24T22:57:59.703Z,-0.20
2024-02-24T23:00:30.774Z,-0.20
2024-02-24T23:03:02.057Z,-0.20
2024-02-24T23:05:31.684Z,-0.20
2024-02-24T23:08:03.914Z,-0.21
2024-02-24T23:10:34.922Z,-0.23
2024-02-24T23:13:06.150Z,-0.27
2024-02-24T23:15:37.235Z,-0.30
2024-02-24T23:18:09.305Z,-0.30
2024-02-24T23:20:40.513Z,-0.31
2024-02-24T23:23:11.967Z,-0.31
2024-02-24T23:25:44.338Z,-0.31
2024-02-24T23:28:16.371Z,-0.29
2024-02-24T23:30:47.226Z,-0.29
2024-02-24T23:33:18.427Z,-0.28
2024-02-24T23:35:50.220Z,-0.29
2024-02-24T23:38:21.836Z,-0.30
2024-02-24T23:40:52.930Z,-0.32
2024-02-24T23:43:24.025Z,-0.32
2024-02-24T23:45:54.936Z,-0.33
2024-02-24T23:48:26.174Z,-0.31
2024-02-24T23:50:59.503Z,-0.31
2024-02-24T23:53:30.863Z,-0.32
2024-02-24T23:56:02.208Z,-0.31
2024-02-24T23:58:31.791Z,-0.31
